sensor_id;sensor_type;location;lat;lon;timestamp;pressure;altitude;pressure_sealevel;temperature;humidity
20930;BME280;21895;47.072;15.132;2022-10-16T00:01:34;97028.00;;;11.71;82.27
20930;BME280;21895;47.072;15.132;2022-10-16T00:04:02;97029.00;;;11.68;82.60
20930;BME280;21895;47.072;15.132;2022-10-16T00:06:30;97036.00;;;11.75;82.61
20930;BME280;21895;47.072;15.132;2022-10-16T00:08:57;97031.00;;;11.81;82.11
20930;BME280;21895;47.072;15.132;2022-10-16T00:11:30;97044.00;;;11.79;81.55
20930;BME280;21895;47.072;15.132;2022-10-16T00:14:01;97046.00;;;11.69;80.86
20930;BME280;21895;47.072;15.132;2022-10-16T00:16:29;97052.00;;;11.62;82.09
20930;BME280;21895;47.072;15.132;2022-10-16T00:18:56;97045.00;;;11.64;81.58
20930;BME280;21895;47.072;15.132;2022-10-16T00:21:26;97049.00;;;11.62;81.34
20930;BME280;21895;47.072;15.132;2022-10-16T00:24:03;97045.00;;;11.51;81.65
20930;BME280;21895;47.072;15.132;2022-10-16T00:26:33;97043.00;;;11.40;81.56
20930;BME280;21895;47.072;15.132;2022-10-16T00:29:00;97050.00;;;11.28;81.75
20930;BME280;21895;47.072;15.132;2022-10-16T00:31:27;97047.00;;;11.31;81.97
20930;BME280;21895;47.072;15.132;2022-10-16T00:33:54;97043.00;;;11.36;82.43
20930;BME280;21895;47.072;15.132;2022-10-16T00:36:23;97049.00;;;11.59;82.61
20930;BME280;21895;47.072;15.132;2022-10-16T00:38:55;97057.00;;;11.62;83.20
20930;BME280;21895;47.072;15.132;2022-10-16T00:41:25;97048.00;;;11.60;83.52
20930;BME280;21895;47.072;15.132;2022-10-16T00:43:58;97053.00;;;11.53;82.84
20930;BME280;21895;47.072;15.132;2022-10-16T00:46:45;97058.00;;;11.47;83.01
20930;BME280;21895;47.072;15.132;2022-10-16T00:49:18;97053.00;;;11.55;82.66
20930;BME280;21895;47.072;15.132;2022-10-16T00:51:50;97063.00;;;11.67;82.07
20930;BME280;21895;47.072;15.132;2022-10-16T00:54:30;97061.00;;;11.59;81.36
20930;BME280;21895;47.072;15.132;2022-10-16T00:57:04;97062.00;;;11.60;81.42
20930;BME280;21895;47.072;15.132;2022-10-16T00:59:39;97054.00;;;11.60;81.10
20930;BME280;21895;47.072;15.132;2022-10-16T01:02:11;97058.00;;;11.56;81.03
20930;BME280;21895;47.072;15.132;2022-10-16T01:04:48;97063.00;;;11.72;80.66
20930;BME280;21895;47.072;15.132;2022-10-16T01:08:29;97060.00;;;11.55;80.58
20930;BME280;21895;47.072;15.132;2022-10-16T01:11:19;97057.00;;;11.57;81.54
20930;BME280;21895;47.072;15.132;2022-10-16T01:13:54;97049.00;;;11.63;82.14
20930;BME280;21895;47.072;15.132;2022-10-16T01:16:49;97056.00;;;11.82;82.59
20930;BME280;21895;47.072;15.132;2022-10-16T01:20:00;97062.00;;;11.92;82.21
20930;BME280;21895;47.072;15.132;2022-10-16T01:28:22;97057.00;;;11.97;81.25
20930;BME280;21895;47.072;15.132;2022-10-16T01:30:55;97049.00;;;11.82;82.12
20930;BME280;21895;47.072;15.132;2022-10-16T01:33:33;97061.00;;;11.91;82.88
20930;BME280;21895;47.072;15.132;2022-10-16T01:36:10;97049.00;;;11.97;83.23
20930;BME280;21895;47.072;15.132;2022-10-16T01:38:40;97051.00;;;12.07;83.02
20930;BME280;21895;47.072;15.132;2022-10-16T01:41:21;97045.00;;;12.10;82.74
20930;BME280;21895;47.072;15.132;2022-10-16T01:44:10;97045.00;;;12.13;82.10
20930;BME280;21895;47.072;15.132;2022-10-16T01:46:40;97044.00;;;12.00;82.05
20930;BME280;21895;47.072;15.132;2022-10-16T01:49:10;97050.00;;;12.06;81.69
20930;BME280;21895;47.072;15.132;2022-10-16T01:51:38;97049.00;;;12.03;81.49
20930;BME280;21895;47.072;15.132;2022-10-16T01:54:08;97045.00;;;11.96;81.52
20930;BME280;21895;47.072;15.132;2022-10-16T01:56:37;97048.00;;;11.85;82.02
20930;BME280;21895;47.072;15.132;2022-10-16T01:59:11;97052.00;;;11.86;82.43
20930;BME280;21895;47.072;15.132;2022-10-16T02:01:45;97043.00;;;12.05;82.05
20930;BME280;21895;47.072;15.132;2022-10-16T02:04:34;97050.00;;;11.83;82.87
20930;BME280;21895;47.072;15.132;2022-10-16T02:07:01;97046.00;;;11.82;82.80
20930;BME280;21895;47.072;15.132;2022-10-16T02:09:30;97045.00;;;11.78;82.76
20930;BME280;21895;47.072;15.132;2022-10-16T02:12:10;97046.00;;;11.73;82.58
20930;BME280;21895;47.072;15.132;2022-10-16T02:14:39;97041.00;;;11.69;82.09
20930;BME280;21895;47.072;15.132;2022-10-16T02:17:17;97031.00;;;11.66;81.60
20930;BME280;21895;47.072;15.132;2022-10-16T02:19:46;97029.00;;;11.70;81.60
20930;BME280;21895;47.072;15.132;2022-10-16T02:22:50;97039.00;;;11.67;81.35
20930;BME280;21895;47.072;15.132;2022-10-16T02:25:26;97044.00;;;11.69;81.24
20930;BME280;21895;47.072;15.132;2022-10-16T02:31:04;97042.00;;;11.49;82.61
20930;BME280;21895;47.072;15.132;2022-10-16T02:33:36;97047.00;;;11.35;83.58
20930;BME280;21895;47.072;15.132;2022-10-16T02:36:05;97033.00;;;11.34;82.59
20930;BME280;21895;47.072;15.132;2022-10-16T02:38:32;97046.00;;;11.30;83.05
20930;BME280;21895;47.072;15.132;2022-10-16T02:40:59;97040.00;;;11.34;82.76
20930;BME280;21895;47.072;15.132;2022-10-16T02:43:26;97049.00;;;11.32;82.08
20930;BME280;21895;47.072;15.132;2022-10-16T02:45:52;97048.00;;;11.30;82.26
20930;BME280;21895;47.072;15.132;2022-10-16T02:48:19;97061.00;;;11.21;82.15
20930;BME280;21895;47.072;15.132;2022-10-16T02:50:45;97070.00;;;11.27;81.90
20930;BME280;21895;47.072;15.132;2022-10-16T02:53:12;97072.00;;;11.28;82.01
20930;BME280;21895;47.072;15.132;2022-10-16T02:55:38;97064.00;;;11.23;82.43
20930;BME280;21895;47.072;15.132;2022-10-16T02:58:05;97071.00;;;11.29;82.35
20930;BME280;21895;47.072;15.132;2022-10-16T03:00:31;97070.00;;;11.23;82.79
20930;BME280;21895;47.072;15.132;2022-10-16T03:02:58;97069.00;;;11.43;82.65
20930;BME280;21895;47.072;15.132;2022-10-16T03:05:24;97067.00;;;11.43;82.62
20930;BME280;21895;47.072;15.132;2022-10-16T03:07:51;97072.00;;;11.43;82.94
20930;BME280;21895;47.072;15.132;2022-10-16T03:10:18;97068.00;;;11.52;82.72
20930;BME280;21895;47.072;15.132;2022-10-16T03:12:45;97072.00;;;11.49;82.79
20930;BME280;21895;47.072;15.132;2022-10-16T03:15:11;97077.00;;;11.48;82.96
20930;BME280;21895;47.072;15.132;2022-10-16T03:17:38;97081.00;;;11.63;82.04
20930;BME280;21895;47.072;15.132;2022-10-16T03:20:05;97082.00;;;11.59;81.93
20930;BME280;21895;47.072;15.132;2022-10-16T03:22:32;97077.00;;;11.68;81.93
20930;BME280;21895;47.072;15.132;2022-10-16T03:24:58;97077.00;;;11.56;82.70
20930;BME280;21895;47.072;15.132;2022-10-16T03:27:25;97081.00;;;11.52;83.07
20930;BME280;21895;47.072;15.132;2022-10-16T03:29:52;97083.00;;;11.48;83.38
20930;BME280;21895;47.072;15.132;2022-10-16T03:32:18;97087.00;;;11.59;83.12
20930;BME280;21895;47.072;15.132;2022-10-16T03:34:46;97090.00;;;11.53;82.48
20930;BME280;21895;47.072;15.132;2022-10-16T03:37:12;97088.00;;;11.51;82.50
20930;BME280;21895;47.072;15.132;2022-10-16T03:39:39;97096.00;;;11.36;81.82
20930;BME280;21895;47.072;15.132;2022-10-16T03:42:05;97085.00;;;11.31;82.05
20930;BME280;21895;47.072;15.132;2022-10-16T03:44:32;97086.00;;;11.36;81.95
20930;BME280;21895;47.072;15.132;2022-10-16T03:46:58;97087.00;;;11.31;81.61
20930;BME280;21895;47.072;15.132;2022-10-16T03:49:25;97091.00;;;11.31;81.37
20930;BME280;21895;47.072;15.132;2022-10-16T03:51:51;97097.00;;;11.20;80.96
20930;BME280;21895;47.072;15.132;2022-10-16T03:54:18;97099.00;;;11.10;81.12
20930;BME280;21895;47.072;15.132;2022-10-16T03:56:44;97100.00;;;11.17;81.10
20930;BME280;21895;47.072;15.132;2022-10-16T03:59:11;97107.00;;;11.16;80.91
20930;BME280;21895;47.072;15.132;2022-10-16T04:01:37;97097.00;;;11.10;80.80
20930;BME280;21895;47.072;15.132;2022-10-16T04:04:04;97093.00;;;11.04;80.52
20930;BME280;21895;47.072;15.132;2022-10-16T04:06:31;97103.00;;;11.01;80.69
20930;BME280;21895;47.072;15.132;2022-10-16T04:08:57;97102.00;;;11.02;81.40
20930;BME280;21895;47.072;15.132;2022-10-16T04:11:24;97097.00;;;10.96;81.56
20930;BME280;21895;47.072;15.132;2022-10-16T04:13:50;97101.00;;;11.03;82.33
20930;BME280;21895;47.072;15.132;2022-10-16T04:16:16;97111.00;;;11.09;81.06
20930;BME280;21895;47.072;15.132;2022-10-16T04:18:43;97118.00;;;11.10;80.08
20930;BME280;21895;47.072;15.132;2022-10-16T04:21:09;97114.00;;;11.04;79.55
20930;BME280;21895;47.072;15.132;2022-10-16T04:23:36;97110.00;;;10.88;80.25
20930;BME280;21895;47.072;15.132;2022-10-16T04:26:02;97106.00;;;10.99;80.45
20930;BME280;21895;47.072;15.132;2022-10-16T04:28:29;97112.00;;;10.91;80.26
20930;BME280;21895;47.072;15.132;2022-10-16T04:30:56;97105.00;;;10.95;80.36
20930;BME280;21895;47.072;15.132;2022-10-16T04:33:22;97104.00;;;10.94;80.12
20930;BME280;21895;47.072;15.132;2022-10-16T04:35:55;97109.00;;;10.86;80.48
20930;BME280;21895;47.072;15.132;2022-10-16T04:38:22;97100.00;;;10.89;80.51
20930;BME280;21895;47.072;15.132;2022-10-16T04:40:48;97107.00;;;10.91;80.49
20930;BME280;21895;47.072;15.132;2022-10-16T04:43:15;97111.00;;;10.87;80.38
20930;BME280;21895;47.072;15.132;2022-10-16T04:45:41;97119.00;;;10.87;80.19
20930;BME280;21895;47.072;15.132;2022-10-16T04:48:08;97116.00;;;10.72;80.33
20930;BME280;21895;47.072;15.132;2022-10-16T04:50:34;97122.00;;;10.76;80.49
20930;BME280;21895;47.072;15.132;2022-10-16T04:53:01;97116.00;;;10.65;80.08
20930;BME280;21895;47.072;15.132;2022-10-16T04:55:27;97125.00;;;10.64;80.34
20930;BME280;21895;47.072;15.132;2022-10-16T04:57:54;97120.00;;;10.66;79.75
20930;BME280;21895;47.072;15.132;2022-10-16T05:00:20;97120.00;;;10.56;79.90
20930;BME280;21895;47.072;15.132;2022-10-16T05:02:50;97125.00;;;10.48;80.32
20930;BME280;21895;47.072;15.132;2022-10-16T05:05:17;97121.00;;;10.49;80.44
20930;BME280;21895;47.072;15.132;2022-10-16T05:07:47;97127.00;;;10.57;80.83
20930;BME280;21895;47.072;15.132;2022-10-16T05:10:14;97131.00;;;10.65;80.77
20930;BME280;21895;47.072;15.132;2022-10-16T05:12:40;97127.00;;;10.64;81.16
20930;BME280;21895;47.072;15.132;2022-10-16T05:15:08;97130.00;;;10.67;81.35
20930;BME280;21895;47.072;15.132;2022-10-16T05:17:34;97135.00;;;10.67;81.80
20930;BME280;21895;47.072;15.132;2022-10-16T05:20:01;97136.00;;;10.75;81.95
20930;BME280;21895;47.072;15.132;2022-10-16T05:22:29;97137.00;;;10.82;82.12
20930;BME280;21895;47.072;15.132;2022-10-16T05:24:56;97138.00;;;10.96;81.62
20930;BME280;21895;47.072;15.132;2022-10-16T05:27:22;97137.00;;;10.96;81.00
20930;BME280;21895;47.072;15.132;2022-10-16T05:29:49;97139.00;;;10.98;80.44
20930;BME280;21895;47.072;15.132;2022-10-16T05:32:17;97148.00;;;10.82;80.36
20930;BME280;21895;47.072;15.132;2022-10-16T05:34:45;97148.00;;;10.72;81.30
20930;BME280;21895;47.072;15.132;2022-10-16T05:37:12;97144.00;;;10.73;81.94
20930;BME280;21895;47.072;15.132;2022-10-16T05:39:39;97151.00;;;10.77;81.58
20930;BME280;21895;47.072;15.132;2022-10-16T05:42:06;97145.00;;;10.82;81.43
20930;BME280;21895;47.072;15.132;2022-10-16T05:44:33;97149.00;;;10.91;81.08
20930;BME280;21895;47.072;15.132;2022-10-16T05:46:59;97150.00;;;10.85;81.07
20930;BME280;21895;47.072;15.132;2022-10-16T05:49:26;97156.00;;;10.74;81.45
20930;BME280;21895;47.072;15.132;2022-10-16T05:51:52;97160.00;;;10.82;81.78
20930;BME280;21895;47.072;15.132;2022-10-16T05:54:19;97164.00;;;10.92;81.31
20930;BME280;21895;47.072;15.132;2022-10-16T05:56:45;97166.00;;;10.93;80.63
20930;BME280;21895;47.072;15.132;2022-10-16T05:59:12;97168.00;;;10.86;80.45
20930;BME280;21895;47.072;15.132;2022-10-16T06:01:38;97170.00;;;10.89;80.10
20930;BME280;21895;47.072;15.132;2022-10-16T06:04:05;97175.00;;;10.84;80.31
20930;BME280;21895;47.072;15.132;2022-10-16T06:06:31;97179.00;;;10.88;80.53
20930;BME280;21895;47.072;15.132;2022-10-16T06:08:58;97183.00;;;10.92;80.36
20930;BME280;21895;47.072;15.132;2022-10-16T06:11:29;97201.00;;;10.96;80.03
20930;BME280;21895;47.072;15.132;2022-10-16T06:13:59;97198.00;;;10.91;80.00
20930;BME280;21895;47.072;15.132;2022-10-16T06:16:28;97208.00;;;10.88;80.23
20930;BME280;21895;47.072;15.132;2022-10-16T06:18:55;97210.00;;;10.97;80.25
20930;BME280;21895;47.072;15.132;2022-10-16T06:21:25;97216.00;;;11.06;80.06
20930;BME280;21895;47.072;15.132;2022-10-16T06:23:53;97211.00;;;11.05;80.85
20930;BME280;21895;47.072;15.132;2022-10-16T06:26:23;97222.00;;;11.16;80.85
20930;BME280;21895;47.072;15.132;2022-10-16T06:28:50;97222.00;;;11.23;81.39
20930;BME280;21895;47.072;15.132;2022-10-16T06:31:17;97225.00;;;11.30;81.01
20930;BME280;21895;47.072;15.132;2022-10-16T06:33:44;97233.00;;;11.43;80.68
20930;BME280;21895;47.072;15.132;2022-10-16T06:36:15;97233.00;;;11.48;80.49
20930;BME280;21895;47.072;15.132;2022-10-16T06:38:42;97242.00;;;11.53;80.45
20930;BME280;21895;47.072;15.132;2022-10-16T06:41:14;97245.00;;;11.66;80.43
20930;BME280;21895;47.072;15.132;2022-10-16T06:43:41;97245.00;;;11.76;80.59
20930;BME280;21895;47.072;15.132;2022-10-16T06:46:10;97243.00;;;11.86;80.83
20930;BME280;21895;47.072;15.132;2022-10-16T06:48:37;97241.00;;;11.92;80.66
20930;BME280;21895;47.072;15.132;2022-10-16T06:51:09;97246.00;;;12.00;80.79
20930;BME280;21895;47.072;15.132;2022-10-16T06:53:39;97249.00;;;12.13;80.82
20930;BME280;21895;47.072;15.132;2022-10-16T06:56:29;97256.00;;;12.26;80.75
20930;BME280;21895;47.072;15.132;2022-10-16T06:58:56;97261.00;;;12.33;80.81
20930;BME280;21895;47.072;15.132;2022-10-16T07:01:24;97262.00;;;12.52;80.63
20930;BME280;21895;47.072;15.132;2022-10-16T07:03:51;97265.00;;;12.79;79.77
20930;BME280;21895;47.072;15.132;2022-10-16T07:06:21;97254.00;;;12.55;80.51
20930;BME280;21895;47.072;15.132;2022-10-16T07:08:49;97266.00;;;12.48;81.34
20930;BME280;21895;47.072;15.132;2022-10-16T07:11:19;97259.00;;;12.62;81.43
20930;BME280;21895;47.072;15.132;2022-10-16T07:13:47;97269.00;;;12.76;81.07
20930;BME280;21895;47.072;15.132;2022-10-16T07:16:26;97271.00;;;12.89;80.43
20930;BME280;21895;47.072;15.132;2022-10-16T07:18:59;97259.00;;;13.02;79.81
20930;BME280;21895;47.072;15.132;2022-10-16T07:21:33;97259.00;;;13.12;79.58
20930;BME280;21895;47.072;15.132;2022-10-16T07:24:02;97264.00;;;13.31;79.65
20930;BME280;21895;47.072;15.132;2022-10-16T07:26:32;97263.00;;;13.44;79.34
20930;BME280;21895;47.072;15.132;2022-10-16T07:28:59;97258.00;;;13.55;78.91
20930;BME280;21895;47.072;15.132;2022-10-16T07:31:27;97259.00;;;13.72;79.39
20930;BME280;21895;47.072;15.132;2022-10-16T07:33:54;97264.00;;;13.80;79.61
20930;BME280;21895;47.072;15.132;2022-10-16T07:36:21;97261.00;;;13.94;79.87
20930;BME280;21895;47.072;15.132;2022-10-16T07:38:48;97251.00;;;14.21;79.46
20930;BME280;21895;47.072;15.132;2022-10-16T07:41:18;97259.00;;;14.19;79.33
20930;BME280;21895;47.072;15.132;2022-10-16T07:43:48;97258.00;;;14.35;79.11
20930;BME280;21895;47.072;15.132;2022-10-16T07:46:16;97259.00;;;14.43;79.01
20930;BME280;21895;47.072;15.132;2022-10-16T07:48:43;97262.00;;;14.61;79.05
20930;BME280;21895;47.072;15.132;2022-10-16T07:51:23;97270.00;;;15.03;77.65
20930;BME280;21895;47.072;15.132;2022-10-16T07:53:50;97271.00;;;14.92;77.38
20930;BME280;21895;47.072;15.132;2022-10-16T07:56:19;97268.00;;;14.99;78.02
20930;BME280;21895;47.072;15.132;2022-10-16T07:58:46;97266.00;;;15.13;77.68
20930;BME280;21895;47.072;15.132;2022-10-16T08:01:15;97277.00;;;15.36;76.77
20930;BME280;21895;47.072;15.132;2022-10-16T08:03:48;97277.00;;;15.34;76.45
20930;BME280;21895;47.072;15.132;2022-10-16T08:06:16;97267.00;;;15.42;76.77
20930;BME280;21895;47.072;15.132;2022-10-16T08:08:42;97263.00;;;15.77;75.78
20930;BME280;21895;47.072;15.132;2022-10-16T08:11:10;97259.00;;;15.89;75.19
20930;BME280;21895;47.072;15.132;2022-10-16T08:13:37;97271.00;;;16.10;74.50
20930;BME280;21895;47.072;15.132;2022-10-16T08:16:04;97262.00;;;16.13;73.80
20930;BME280;21895;47.072;15.132;2022-10-16T08:18:36;97261.00;;;16.31;73.29
20930;BME280;21895;47.072;15.132;2022-10-16T08:21:03;97266.00;;;16.44;72.71
20930;BME280;21895;47.072;15.132;2022-10-16T08:23:30;97268.00;;;16.59;71.99
20930;BME280;21895;47.072;15.132;2022-10-16T08:26:04;97269.00;;;16.78;71.62
20930;BME280;21895;47.072;15.132;2022-10-16T08:28:31;97268.00;;;16.86;71.76
20930;BME280;21895;47.072;15.132;2022-10-16T08:31:10;97259.00;;;17.12;70.17
20930;BME280;21895;47.072;15.132;2022-10-16T08:33:38;97271.00;;;17.34;69.53
20930;BME280;21895;47.072;15.132;2022-10-16T08:36:06;97266.00;;;17.47;69.34
20930;BME280;21895;47.072;15.132;2022-10-16T08:38:33;97263.00;;;17.63;69.08
20930;BME280;21895;47.072;15.132;2022-10-16T08:41:33;97271.00;;;17.78;68.64
20930;BME280;21895;47.072;15.132;2022-10-16T08:45:04;97268.00;;;17.84;68.03
20930;BME280;21895;47.072;15.132;2022-10-16T08:48:14;97271.00;;;17.93;67.90
20930;BME280;21895;47.072;15.132;2022-10-16T08:50:44;97275.00;;;18.05;69.19
20930;BME280;21895;47.072;15.132;2022-10-16T08:53:25;97272.00;;;18.12;69.42
20930;BME280;21895;47.072;15.132;2022-10-16T08:55:54;97277.00;;;18.35;68.50
20930;BME280;21895;47.072;15.132;2022-10-16T08:58:28;97269.00;;;18.48;68.06
20930;BME280;21895;47.072;15.132;2022-10-16T09:01:03;97286.00;;;18.63;68.10
20930;BME280;21895;47.072;15.132;2022-10-16T09:13:28;97289.00;;;19.02;67.30
20930;BME280;21895;47.072;15.132;2022-10-16T09:16:28;97281.00;;;19.13;66.76
20930;BME280;21895;47.072;15.132;2022-10-16T09:21:23;97284.00;;;19.25;66.54
20930;BME280;21895;47.072;15.132;2022-10-16T09:23:50;97283.00;;;19.52;64.93
20930;BME280;21895;47.072;15.132;2022-10-16T09:26:18;97282.00;;;19.52;63.99
20930;BME280;21895;47.072;15.132;2022-10-16T09:28:48;97280.00;;;19.63;61.68
20930;BME280;21895;47.072;15.132;2022-10-16T09:31:22;97268.00;;;19.87;61.15
20930;BME280;21895;47.072;15.132;2022-10-16T09:33:58;97273.00;;;20.02;59.87
20930;BME280;21895;47.072;15.132;2022-10-16T09:36:27;97273.00;;;19.93;58.94
20930;BME280;21895;47.072;15.132;2022-10-16T09:39:06;97279.00;;;19.99;59.54
20930;BME280;21895;47.072;15.132;2022-10-16T09:41:37;97280.00;;;20.03;59.01
20930;BME280;21895;47.072;15.132;2022-10-16T09:44:27;97283.00;;;20.43;57.98
20930;BME280;21895;47.072;15.132;2022-10-16T09:47:12;97279.00;;;20.34;58.50
20930;BME280;21895;47.072;15.132;2022-10-16T09:49:39;97288.00;;;20.54;56.14
20930;BME280;21895;47.072;15.132;2022-10-16T09:52:20;97287.00;;;20.46;57.04
20930;BME280;21895;47.072;15.132;2022-10-16T09:55:02;97290.00;;;20.43;56.43
20930;BME280;21895;47.072;15.132;2022-10-16T09:57:29;97292.00;;;20.59;57.03
20930;BME280;21895;47.072;15.132;2022-10-16T09:59:58;97292.00;;;20.73;55.58
20930;BME280;21895;47.072;15.132;2022-10-16T10:02:35;97300.00;;;20.73;55.64
20930;BME280;21895;47.072;15.132;2022-10-16T10:05:28;97290.00;;;20.92;54.45
20930;BME280;21895;47.072;15.132;2022-10-16T10:07:58;97288.00;;;20.83;55.93
20930;BME280;21895;47.072;15.132;2022-10-16T10:10:28;97280.00;;;20.91;56.27
20930;BME280;21895;47.072;15.132;2022-10-16T10:12:56;97283.00;;;20.90;55.69
20930;BME280;21895;47.072;15.132;2022-10-16T10:15:24;97288.00;;;20.95;56.13
20930;BME280;21895;47.072;15.132;2022-10-16T10:17:56;97283.00;;;21.13;54.62
20930;BME280;21895;47.072;15.132;2022-10-16T10:20:41;97281.00;;;21.16;55.68
20930;BME280;21895;47.072;15.132;2022-10-16T10:23:23;97279.00;;;21.25;55.26
20930;BME280;21895;47.072;15.132;2022-10-16T10:26:27;97276.00;;;21.30;54.46
20930;BME280;21895;47.072;15.132;2022-10-16T10:35:47;97270.00;;;21.58;54.48
20930;BME280;21895;47.072;15.132;2022-10-16T10:39:45;97273.00;;;21.69;55.04
20930;BME280;21895;47.072;15.132;2022-10-16T10:42:51;97272.00;;;21.94;53.03
20930;BME280;21895;47.072;15.132;2022-10-16T10:46:05;97269.00;;;22.08;51.29
20930;BME280;21895;47.072;15.132;2022-10-16T10:49:31;97257.00;;;21.95;51.58
20930;BME280;21895;47.072;15.132;2022-10-16T10:55:52;97263.00;;;21.93;52.78
20930;BME280;21895;47.072;15.132;2022-10-16T10:59:07;97256.00;;;22.13;51.89
20930;BME280;21895;47.072;15.132;2022-10-16T11:09:47;97256.00;;;22.04;53.22
20930;BME280;21895;47.072;15.132;2022-10-16T11:14:26;97257.00;;;22.41;52.03
20930;BME280;21895;47.072;15.132;2022-10-16T11:19:25;97266.00;;;22.42;50.96
20930;BME280;21895;47.072;15.132;2022-10-16T11:22:26;97253.00;;;22.26;52.19
20930;BME280;21895;47.072;15.132;2022-10-16T11:25:22;97259.00;;;22.32;52.80
20930;BME280;21895;47.072;15.132;2022-10-16T11:31:08;97253.00;;;22.39;52.42
20930;BME280;21895;47.072;15.132;2022-10-16T11:33:46;97248.00;;;22.28;52.94
20930;BME280;21895;47.072;15.132;2022-10-16T11:36:40;97247.00;;;22.74;51.51
20930;BME280;21895;47.072;15.132;2022-10-16T11:39:28;97242.00;;;22.61;51.69
20930;BME280;21895;47.072;15.132;2022-10-16T11:47:35;97246.00;;;22.62;50.02
20930;BME280;21895;47.072;15.132;2022-10-16T11:55:33;97235.00;;;22.68;48.51
20930;BME280;21895;47.072;15.132;2022-10-16T12:00:45;97245.00;;;22.52;50.66
20930;BME280;21895;47.072;15.132;2022-10-16T12:04:53;97253.00;;;23.02;49.67
20930;BME280;21895;47.072;15.132;2022-10-16T12:07:34;97248.00;;;22.99;49.06
20930;BME280;21895;47.072;15.132;2022-10-16T12:10:28;97242.00;;;22.85;48.73
20930;BME280;21895;47.072;15.132;2022-10-16T12:12:55;97241.00;;;22.88;48.18
20930;BME280;21895;47.072;15.132;2022-10-16T12:15:32;97239.00;;;22.69;49.11
20930;BME280;21895;47.072;15.132;2022-10-16T12:18:25;97241.00;;;22.65;48.93
20930;BME280;21895;47.072;15.132;2022-10-16T12:20:59;97245.00;;;22.83;48.92
20930;BME280;21895;47.072;15.132;2022-10-16T12:23:54;97247.00;;;22.66;48.63
20930;BME280;21895;47.072;15.132;2022-10-16T12:26:31;97249.00;;;22.65;48.45
20930;BME280;21895;47.072;15.132;2022-10-16T12:29:36;97236.00;;;22.66;49.30
20930;BME280;21895;47.072;15.132;2022-10-16T12:32:33;97242.00;;;22.68;50.17
20930;BME280;21895;47.072;15.132;2022-10-16T12:35:35;97240.00;;;22.85;50.61
20930;BME280;21895;47.072;15.132;2022-10-16T12:38:21;97260.00;;;22.84;49.57
20930;BME280;21895;47.072;15.132;2022-10-16T12:41:04;97259.00;;;22.85;50.68
20930;BME280;21895;47.072;15.132;2022-10-16T12:43:41;97259.00;;;22.85;50.80
20930;BME280;21895;47.072;15.132;2022-10-16T12:46:53;97260.00;;;22.79;50.73
20930;BME280;21895;47.072;15.132;2022-10-16T12:49:35;97264.00;;;22.57;52.04
20930;BME280;21895;47.072;15.132;2022-10-16T12:52:04;97261.00;;;22.54;52.56
20930;BME280;21895;47.072;15.132;2022-10-16T12:54:39;97259.00;;;22.44;52.23
20930;BME280;21895;47.072;15.132;2022-10-16T13:00:41;97258.00;;;22.37;52.92
20930;BME280;21895;47.072;15.132;2022-10-16T13:15:35;97272.00;;;22.42;52.04
20930;BME280;21895;47.072;15.132;2022-10-16T13:18:32;97279.00;;;22.40;51.22
20930;BME280;21895;47.072;15.132;2022-10-16T13:22:34;97276.00;;;22.34;50.64
20930;BME280;21895;47.072;15.132;2022-10-16T13:28:38;97272.00;;;22.45;48.95
20930;BME280;21895;47.072;15.132;2022-10-16T13:31:24;97285.00;;;22.55;48.39
20930;BME280;21895;47.072;15.132;2022-10-16T13:33:55;97282.00;;;22.31;49.38
20930;BME280;21895;47.072;15.132;2022-10-16T13:36:34;97290.00;;;22.28;50.21
20930;BME280;21895;47.072;15.132;2022-10-16T13:39:24;97287.00;;;22.17;50.14
20930;BME280;21895;47.072;15.132;2022-10-16T13:42:17;97299.00;;;22.42;49.92
20930;BME280;21895;47.072;15.132;2022-10-16T13:44:51;97293.00;;;22.23;50.69
20930;BME280;21895;47.072;15.132;2022-10-16T13:47:28;97300.00;;;22.15;50.93
20930;BME280;21895;47.072;15.132;2022-10-16T13:50:17;97300.00;;;22.22;49.84
20930;BME280;21895;47.072;15.132;2022-10-16T13:52:44;97305.00;;;22.22;49.97
20930;BME280;21895;47.072;15.132;2022-10-16T13:55:17;97309.00;;;22.29;50.07
20930;BME280;21895;47.072;15.132;2022-10-16T13:57:45;97310.00;;;22.21;51.06
20930;BME280;21895;47.072;15.132;2022-10-16T14:00:26;97316.00;;;22.04;51.94
20930;BME280;21895;47.072;15.132;2022-10-16T14:03:06;97310.00;;;22.09;51.04
20930;BME280;21895;47.072;15.132;2022-10-16T14:05:34;97314.00;;;22.09;51.39
20930;BME280;21895;47.072;15.132;2022-10-16T14:08:01;97313.00;;;22.45;49.61
20930;BME280;21895;47.072;15.132;2022-10-16T14:10:31;97309.00;;;22.28;50.51
20930;BME280;21895;47.072;15.132;2022-10-16T14:13:02;97317.00;;;22.14;50.45
20930;BME280;21895;47.072;15.132;2022-10-16T14:15:31;97318.00;;;21.96;51.47
20930;BME280;21895;47.072;15.132;2022-10-16T14:17:59;97322.00;;;21.81;51.42
20930;BME280;21895;47.072;15.132;2022-10-16T14:20:32;97325.00;;;21.77;51.77
20930;BME280;21895;47.072;15.132;2022-10-16T14:23:31;97318.00;;;21.70;52.61
20930;BME280;21895;47.072;15.132;2022-10-16T14:27:01;97315.00;;;21.63;52.93
20930;BME280;21895;47.072;15.132;2022-10-16T14:29:29;97325.00;;;21.61;53.08
20930;BME280;21895;47.072;15.132;2022-10-16T14:32:01;97326.00;;;21.56;53.32
20930;BME280;21895;47.072;15.132;2022-10-16T14:34:35;97331.00;;;21.64;53.06
20930;BME280;21895;47.072;15.132;2022-10-16T14:37:25;97327.00;;;21.53;54.14
20930;BME280;21895;47.072;15.132;2022-10-16T14:39:55;97333.00;;;21.43;54.62
20930;BME280;21895;47.072;15.132;2022-10-16T14:42:24;97333.00;;;21.50;54.29
20930;BME280;21895;47.072;15.132;2022-10-16T14:44:55;97344.00;;;21.42;54.34
20930;BME280;21895;47.072;15.132;2022-10-16T14:47:25;97348.00;;;21.34;54.72
20930;BME280;21895;47.072;15.132;2022-10-16T14:49:54;97345.00;;;21.35;55.20